Pagrindinis puslapis
METAR-TAF:

METAR-TAF

Oro uostai :

Gatesville Municipal Airport

Gatesville, Teksasas, Jungtinės Amerikos Valstijos

platuma: 31-25-16N, ilguma: 097-47-49W, Aukštis: 276 m

Dabartinis oras

Ataskaita buvo paskelbta 24 minutes, ne 06:35 UTC
Ramus vėjas
Temperatūra 16°C
Drėgmė 88%
Slėgis 1014 hPa
Matomumas: 16.1 km
Giedras dangus

METAR: KGOP 270635Z AUTO 00000KT 10SM CLR 16/14 A2993 RMK AO2

Laikas: 01:59 (06:59 UTC)


TAF: trūkstamas

Orai ataskaitas ir orų prognozės (METAR, TAF).

turimą stotys yra geltonos ir raudonos taškus žemėlapyje.

Perkelti pele per norėdami pamatyti stoties vardą.

Tada spustelėkite, norėdami matyti oro stebėjimo ir prognozės.

Norėdami pakeisti žemėlapį: spustelėkite ant žalios mygtukų su juodo kryžiaus žemyn,; žalią mygtuką su brūkšneliu, jei norite nutolinti; arba žalių rodyklių gretimoms žemėlapius.


METAR-TAF: